sensor_id;sensor_type;location;lat;lon;timestamp;temperature;humidity
17984;DHT22;9117;52.420;20.728;2022-12-19T00:02:57;-5.80;99.90
17984;DHT22;9117;52.420;20.728;2022-12-19T00:20:20;-5.70;99.90
17984;DHT22;9117;52.420;20.728;2022-12-19T00:37:41;-5.60;1.00
17984;DHT22;9117;52.420;20.728;2022-12-19T00:52:45;-5.70;1.00
17984;DHT22;9117;52.420;20.728;2022-12-19T00:55:13;-5.90;1.00
17984;DHT22;9117;52.420;20.728;2022-12-19T01:00:15;-5.50;99.90
17984;DHT22;9117;52.420;20.728;2022-12-19T01:07:40;-4.90;1.00
17984;DHT22;9117;52.420;20.728;2022-12-19T01:10:10;-5.80;99.90
17984;DHT22;9117;52.420;20.728;2022-12-19T01:15:13;-5.80;99.90
17984;DHT22;9117;52.420;20.728;2022-12-19T01:20:12;-4.60;1.00
17984;DHT22;9117;52.420;20.728;2022-12-19T01:25:10;-6.00;99.90
17984;DHT22;9117;52.420;20.728;2022-12-19T01:30:09;-5.90;1.00
17984;DHT22;9117;52.420;20.728;2022-12-19T01:35:07;-5.40;99.90
17984;DHT22;9117;52.420;20.728;2022-12-19T01:40:17;-6.20;1.00
17984;DHT22;9117;52.420;20.728;2022-12-19T01:45:30;-6.20;1.00
17984;DHT22;9117;52.420;20.728;2022-12-19T01:48:06;-6.30;1.00
17984;DHT22;9117;52.420;20.728;2022-12-19T01:50:43;-6.30;1.00
17984;DHT22;9117;52.420;20.728;2022-12-19T01:53:32;-6.30;73.60
17984;DHT22;9117;52.420;20.728;2022-12-19T01:56:05;-6.90;95.60
17984;DHT22;9117;52.420;20.728;2022-12-19T01:58:34;-6.50;99.90
17984;DHT22;9117;52.420;20.728;2022-12-19T02:01:03;-6.50;99.90
17984;DHT22;9117;52.420;20.728;2022-12-19T02:03:33;-6.40;1.00
17984;DHT22;9117;52.420;20.728;2022-12-19T02:06:03;-6.40;1.00
17984;DHT22;9117;52.420;20.728;2022-12-19T02:08:33;-6.40;1.00
17984;DHT22;9117;52.420;20.728;2022-12-19T02:11:03;-6.40;1.00
17984;DHT22;9117;52.420;20.728;2022-12-19T02:13:31;-6.50;99.90
17984;DHT22;9117;52.420;20.728;2022-12-19T02:16:04;-6.70;1.00
17984;DHT22;9117;52.420;20.728;2022-12-19T02:18:39;-6.50;1.00
17984;DHT22;9117;52.420;20.728;2022-12-19T02:21:22;-6.60;1.00
17984;DHT22;9117;52.420;20.728;2022-12-19T02:27:25;-6.60;1.00
17984;DHT22;9117;52.420;20.728;2022-12-19T02:30:08;-6.60;1.00
17984;DHT22;9117;52.420;20.728;2022-12-19T02:32:47;-6.50;1.00
17984;DHT22;9117;52.420;20.728;2022-12-19T02:35:23;-6.50;1.00
17984;DHT22;9117;52.420;20.728;2022-12-19T02:37:57;-6.60;1.00
17984;DHT22;9117;52.420;20.728;2022-12-19T02:40:39;-6.60;1.00
17984;DHT22;9117;52.420;20.728;2022-12-19T02:43:09;-6.50;1.00
17984;DHT22;9117;52.420;20.728;2022-12-19T02:45:38;-6.50;1.00
17984;DHT22;9117;52.420;20.728;2022-12-19T02:48:09;-6.40;1.00
17984;DHT22;9117;52.420;20.728;2022-12-19T02:50:45;-6.40;1.00
17984;DHT22;9117;52.420;20.728;2022-12-19T02:53:16;-6.70;1.00
17984;DHT22;9117;52.420;20.728;2022-12-19T02:56:00;-6.50;1.00
17984;DHT22;9117;52.420;20.728;2022-12-19T02:58:46;-6.50;1.00
17984;DHT22;9117;52.420;20.728;2022-12-19T03:01:25;-6.70;99.90
17984;DHT22;9117;52.420;20.728;2022-12-19T03:04:06;-6.70;1.00
17984;DHT22;9117;52.420;20.728;2022-12-19T03:06:42;-4.70;99.90
17984;DHT22;9117;52.420;20.728;2022-12-19T03:09:19;-6.80;99.90
17984;DHT22;9117;52.420;20.728;2022-12-19T03:11:59;-6.80;99.90
17984;DHT22;9117;52.420;20.728;2022-12-19T03:14:29;-6.90;99.90
17984;DHT22;9117;52.420;20.728;2022-12-19T03:17:02;-6.80;99.90
17984;DHT22;9117;52.420;20.728;2022-12-19T03:19:33;-6.90;99.90
17984;DHT22;9117;52.420;20.728;2022-12-19T03:27:01;-7.00;99.90
17984;DHT22;9117;52.420;20.728;2022-12-19T03:29:32;-7.00;99.90
17984;DHT22;9117;52.420;20.728;2022-12-19T03:32:04;-7.10;99.90
17984;DHT22;9117;52.420;20.728;2022-12-19T03:34:37;-7.10;99.90
17984;DHT22;9117;52.420;20.728;2022-12-19T03:37:12;-7.20;99.90
17984;DHT22;9117;52.420;20.728;2022-12-19T03:39:45;-7.20;1.00
17984;DHT22;9117;52.420;20.728;2022-12-19T03:42:16;-7.20;99.90
17984;DHT22;9117;52.420;20.728;2022-12-19T03:45:05;-7.30;1.00
17984;DHT22;9117;52.420;20.728;2022-12-19T03:47:36;-7.30;1.00
17984;DHT22;9117;52.420;20.728;2022-12-19T03:50:08;-7.40;1.00
17984;DHT22;9117;52.420;20.728;2022-12-19T03:52:40;-7.40;1.00
17984;DHT22;9117;52.420;20.728;2022-12-19T03:55:16;-7.40;1.00
17984;DHT22;9117;52.420;20.728;2022-12-19T03:57:49;-7.40;1.00
17984;DHT22;9117;52.420;20.728;2022-12-19T04:00:20;-7.50;1.00
17984;DHT22;9117;52.420;20.728;2022-12-19T04:02:51;-7.50;13.40
17984;DHT22;9117;52.420;20.728;2022-12-19T04:05:24;-7.50;1.00
17984;DHT22;9117;52.420;20.728;2022-12-19T04:07:55;-7.50;99.90
17984;DHT22;9117;52.420;20.728;2022-12-19T04:10:26;-7.60;1.00
17984;DHT22;9117;52.420;20.728;2022-12-19T04:12:57;-6.40;1.00
17984;DHT22;9117;52.420;20.728;2022-12-19T04:15:33;-7.60;1.00
17984;DHT22;9117;52.420;20.728;2022-12-19T04:18:04;-7.70;1.00
17984;DHT22;9117;52.420;20.728;2022-12-19T04:20:37;-7.60;1.00
17984;DHT22;9117;52.420;20.728;2022-12-19T04:23:09;-7.70;1.00
17984;DHT22;9117;52.420;20.728;2022-12-19T04:25:41;-7.70;1.00
17984;DHT22;9117;52.420;20.728;2022-12-19T04:28:13;-7.60;1.00
17984;DHT22;9117;52.420;20.728;2022-12-19T04:35:41;-7.70;99.90
17984;DHT22;9117;52.420;20.728;2022-12-19T04:53:04;-7.80;1.00
17984;DHT22;9117;52.420;20.728;2022-12-19T04:58:03;-7.80;1.00
17984;DHT22;9117;52.420;20.728;2022-12-19T05:10:26;-7.80;99.90
17984;DHT22;9117;52.420;20.728;2022-12-19T05:27:45;-8.00;1.00
17984;DHT22;9117;52.420;20.728;2022-12-19T05:40:07;-8.10;1.00
17984;DHT22;9117;52.420;20.728;2022-12-19T05:45:06;-8.10;1.00
17984;DHT22;9117;52.420;20.728;2022-12-19T05:50:04;-6.10;1.00
17984;DHT22;9117;52.420;20.728;2022-12-19T06:02:31;-8.30;1.00
17984;DHT22;9117;52.420;20.728;2022-12-19T06:19:51;-8.50;1.00
17984;DHT22;9117;52.420;20.728;2022-12-19T06:37:30;-8.70;1.00
17984;DHT22;9117;52.420;20.728;2022-12-19T06:44:54;-8.70;1.00
17984;DHT22;9117;52.420;20.728;2022-12-19T06:47:23;-8.70;1.00
17984;DHT22;9117;52.420;20.728;2022-12-19T06:54:49;-8.80;1.00
17984;DHT22;9117;52.420;20.728;2022-12-19T07:02:22;-8.80;1.00
17984;DHT22;9117;52.420;20.728;2022-12-19T07:04:56;-8.80;99.90
17984;DHT22;9117;52.420;20.728;2022-12-19T07:07:27;-8.80;1.00
17984;DHT22;9117;52.420;20.728;2022-12-19T07:09:57;-8.80;1.00
17984;DHT22;9117;52.420;20.728;2022-12-19T07:27:17;-8.80;1.00
17984;DHT22;9117;52.420;20.728;2022-12-19T07:34:44;-8.70;1.00
17984;DHT22;9117;52.420;20.728;2022-12-19T07:44:39;-8.60;99.90
17984;DHT22;9117;52.420;20.728;2022-12-19T08:02:06;-8.30;99.90
17984;DHT22;9117;52.420;20.728;2022-12-19T08:11:59;-7.90;99.90
17984;DHT22;9117;52.420;20.728;2022-12-19T08:19:46;-7.70;1.00
17984;DHT22;9117;52.420;20.728;2022-12-19T08:27:10;-7.40;1.00
17984;DHT22;9117;52.420;20.728;2022-12-19T08:29:38;-7.40;1.00
17984;DHT22;9117;52.420;20.728;2022-12-19T08:37:04;-7.20;1.00
17984;DHT22;9117;52.420;20.728;2022-12-19T08:39:32;-7.00;1.00
17984;DHT22;9117;52.420;20.728;2022-12-19T08:51:54;-6.10;1.00
17984;DHT22;9117;52.420;20.728;2022-12-19T08:54:23;-6.70;99.90
17984;DHT22;9117;52.420;20.728;2022-12-19T08:56:52;-6.40;1.00
17984;DHT22;9117;52.420;20.728;2022-12-19T09:01:58;-6.60;99.90
17984;DHT22;9117;52.420;20.728;2022-12-19T09:09:45;-6.50;1.00
17984;DHT22;9117;52.420;20.728;2022-12-19T09:12:14;-6.40;1.00
17984;DHT22;9117;52.420;20.728;2022-12-19T09:14:42;-6.50;99.90
17984;DHT22;9117;52.420;20.728;2022-12-19T09:27:12;-6.30;1.00
17984;DHT22;9117;52.420;20.728;2022-12-19T09:37:07;-6.20;99.90
17984;DHT22;9117;52.420;20.728;2022-12-19T09:42:31;-6.10;1.00
17984;DHT22;9117;52.420;20.728;2022-12-19T09:45:19;-6.00;99.90
17984;DHT22;9117;52.420;20.728;2022-12-19T09:47:59;-5.90;1.00
17984;DHT22;9117;52.420;20.728;2022-12-19T09:50:38;-6.10;1.00
17984;DHT22;9117;52.420;20.728;2022-12-19T09:53:14;-5.90;44.60
17984;DHT22;9117;52.420;20.728;2022-12-19T09:55:44;-5.70;1.00
17984;DHT22;9117;52.420;20.728;2022-12-19T09:58:23;-5.90;99.90
17984;DHT22;9117;52.420;20.728;2022-12-19T10:00:55;-5.70;1.00
17984;DHT22;9117;52.420;20.728;2022-12-19T10:03:28;-5.70;41.70
17984;DHT22;9117;52.420;20.728;2022-12-19T10:06:11;-5.70;1.00
17984;DHT22;9117;52.420;20.728;2022-12-19T10:09:01;-5.70;4.80
17984;DHT22;9117;52.420;20.728;2022-12-19T10:12:02;-5.00;99.90
17984;DHT22;9117;52.420;20.728;2022-12-19T10:15:00;-5.30;99.90
17984;DHT22;9117;52.420;20.728;2022-12-19T10:17:37;-4.70;30.30
17984;DHT22;9117;52.420;20.728;2022-12-19T10:20:18;-5.60;1.00
17984;DHT22;9117;52.420;20.728;2022-12-19T10:22:57;-5.10;99.90
17984;DHT22;9117;52.420;20.728;2022-12-19T10:25:31;-5.40;99.90
17984;DHT22;9117;52.420;20.728;2022-12-19T10:28:15;-5.30;1.00
17984;DHT22;9117;52.420;20.728;2022-12-19T10:30:57;-5.10;99.90
17984;DHT22;9117;52.420;20.728;2022-12-19T10:33:41;-5.20;99.90
17984;DHT22;9117;52.420;20.728;2022-12-19T10:36:11;-5.20;1.00
17984;DHT22;9117;52.420;20.728;2022-12-19T10:38:44;-5.10;99.90
17984;DHT22;9117;52.420;20.728;2022-12-19T10:41:19;-5.10;99.90
17984;DHT22;9117;52.420;20.728;2022-12-19T10:43:55;-4.90;1.00
17984;DHT22;9117;52.420;20.728;2022-12-19T10:46:39;-4.60;99.90
17984;DHT22;9117;52.420;20.728;2022-12-19T10:49:13;-4.90;1.00
17984;DHT22;9117;52.420;20.728;2022-12-19T10:51:52;-5.00;99.90
17984;DHT22;9117;52.420;20.728;2022-12-19T10:57:16;-5.40;1.00
17984;DHT22;9117;52.420;20.728;2022-12-19T10:59:54;-5.00;1.00
17984;DHT22;9117;52.420;20.728;2022-12-19T11:02:31;-5.20;1.00
17984;DHT22;9117;52.420;20.728;2022-12-19T11:05:01;-5.70;1.00
17984;DHT22;9117;52.420;20.728;2022-12-19T11:07:30;-5.70;1.00
17984;DHT22;9117;52.420;20.728;2022-12-19T11:12:51;-5.10;1.00
17984;DHT22;9117;52.420;20.728;2022-12-19T11:15:45;-5.00;99.90
17984;DHT22;9117;52.420;20.728;2022-12-19T11:18:37;-5.30;99.90
17984;DHT22;9117;52.420;20.728;2022-12-19T11:21:28;-5.00;1.00
17984;DHT22;9117;52.420;20.728;2022-12-19T11:24:22;-4.90;1.00
17984;DHT22;9117;52.420;20.728;2022-12-19T11:27:29;-4.80;56.50
17984;DHT22;9117;52.420;20.728;2022-12-19T11:30:21;-5.10;1.00
17984;DHT22;9117;52.420;20.728;2022-12-19T11:33:13;-5.10;1.00
17984;DHT22;9117;52.420;20.728;2022-12-19T11:35:48;-5.00;1.00
17984;DHT22;9117;52.420;20.728;2022-12-19T11:38:20;-5.20;1.00
17984;DHT22;9117;52.420;20.728;2022-12-19T11:40:54;-5.00;1.00
17984;DHT22;9117;52.420;20.728;2022-12-19T11:43:26;-5.20;1.00
17984;DHT22;9117;52.420;20.728;2022-12-19T11:46:22;-5.00;1.00
17984;DHT22;9117;52.420;20.728;2022-12-19T11:48:54;-5.10;1.00
17984;DHT22;9117;52.420;20.728;2022-12-19T11:51:31;-5.20;1.00
17984;DHT22;9117;52.420;20.728;2022-12-19T11:54:05;-4.90;1.00
17984;DHT22;9117;52.420;20.728;2022-12-19T11:56:36;-5.30;1.00
17984;DHT22;9117;52.420;20.728;2022-12-19T11:59:11;-5.00;99.90
17984;DHT22;9117;52.420;20.728;2022-12-19T12:01:51;-5.20;99.90
17984;DHT22;9117;52.420;20.728;2022-12-19T12:04:46;-5.60;1.00
17984;DHT22;9117;52.420;20.728;2022-12-19T12:07:20;-5.00;1.00
17984;DHT22;9117;52.420;20.728;2022-12-19T12:13:09;-4.60;1.00
17984;DHT22;9117;52.420;20.728;2022-12-19T12:16:04;-5.00;1.00
17984;DHT22;9117;52.420;20.728;2022-12-19T12:19:06;-5.10;1.00
17984;DHT22;9117;52.420;20.728;2022-12-19T12:22:07;-5.10;1.00
17984;DHT22;9117;52.420;20.728;2022-12-19T12:25:05;-5.00;1.00
17984;DHT22;9117;52.420;20.728;2022-12-19T12:28:05;-5.10;1.00
17984;DHT22;9117;52.420;20.728;2022-12-19T12:31:03;-5.00;99.90
17984;DHT22;9117;52.420;20.728;2022-12-19T12:34:02;-4.90;1.00
17984;DHT22;9117;52.420;20.728;2022-12-19T12:37:00;-4.90;99.90
17984;DHT22;9117;52.420;20.728;2022-12-19T12:40:02;-4.80;99.90
17984;DHT22;9117;52.420;20.728;2022-12-19T12:42:41;-4.60;99.90
17984;DHT22;9117;52.420;20.728;2022-12-19T12:45:20;-4.60;16.60
17984;DHT22;9117;52.420;20.728;2022-12-19T12:47:51;-4.60;1.00
17984;DHT22;9117;52.420;20.728;2022-12-19T12:50:22;-4.30;1.00
17984;DHT22;9117;52.420;20.728;2022-12-19T12:52:54;-4.40;1.00
17984;DHT22;9117;52.420;20.728;2022-12-19T12:55:27;-4.70;1.00
17984;DHT22;9117;52.420;20.728;2022-12-19T12:57:56;-4.20;1.00
17984;DHT22;9117;52.420;20.728;2022-12-19T13:00:27;-4.20;99.90
17984;DHT22;9117;52.420;20.728;2022-12-19T13:03:01;-4.80;1.00
17984;DHT22;9117;52.420;20.728;2022-12-19T13:05:40;-4.30;1.00
17984;DHT22;9117;52.420;20.728;2022-12-19T13:08:31;-4.40;1.00
17984;DHT22;9117;52.420;20.728;2022-12-19T13:11:04;-4.40;1.00
17984;DHT22;9117;52.420;20.728;2022-12-19T13:13:53;-4.60;99.90
17984;DHT22;9117;52.420;20.728;2022-12-19T13:16:48;-4.40;1.00
17984;DHT22;9117;52.420;20.728;2022-12-19T13:19:21;-4.10;99.90
17984;DHT22;9117;52.420;20.728;2022-12-19T13:22:16;-4.30;1.00
17984;DHT22;9117;52.420;20.728;2022-12-19T13:24:46;-4.60;1.00
17984;DHT22;9117;52.420;20.728;2022-12-19T13:27:41;-4.50;1.00
17984;DHT22;9117;52.420;20.728;2022-12-19T13:30:18;-4.60;99.90
17984;DHT22;9117;52.420;20.728;2022-12-19T13:33:09;-4.60;1.00
17984;DHT22;9117;52.420;20.728;2022-12-19T13:35:37;-4.20;1.00
17984;DHT22;9117;52.420;20.728;2022-12-19T13:38:26;-4.90;1.00
17984;DHT22;9117;52.420;20.728;2022-12-19T13:41:27;-4.80;99.90
17984;DHT22;9117;52.420;20.728;2022-12-19T13:44:17;-4.90;1.00
17984;DHT22;9117;52.420;20.728;2022-12-19T13:46:46;-5.20;1.00
17984;DHT22;9117;52.420;20.728;2022-12-19T13:49:18;-5.10;99.90
17984;DHT22;9117;52.420;20.728;2022-12-19T13:51:47;-5.20;99.90
17984;DHT22;9117;52.420;20.728;2022-12-19T13:54:20;-4.80;1.00
17984;DHT22;9117;52.420;20.728;2022-12-19T13:56:50;-5.60;1.00
17984;DHT22;9117;52.420;20.728;2022-12-19T13:59:21;-5.00;99.90
17984;DHT22;9117;52.420;20.728;2022-12-19T14:01:51;-5.40;1.00
17984;DHT22;9117;52.420;20.728;2022-12-19T14:04:26;-5.30;1.00
17984;DHT22;9117;52.420;20.728;2022-12-19T14:06:58;-5.60;99.90
17984;DHT22;9117;52.420;20.728;2022-12-19T14:09:31;-5.20;1.00
17984;DHT22;9117;52.420;20.728;2022-12-19T14:12:22;-5.60;99.90
17984;DHT22;9117;52.420;20.728;2022-12-19T14:15:33;-5.50;1.00
17984;DHT22;9117;52.420;20.728;2022-12-19T14:18:15;-5.50;1.00
17984;DHT22;9117;52.420;20.728;2022-12-19T14:21:13;-5.00;1.00
17984;DHT22;9117;52.420;20.728;2022-12-19T14:24:15;-5.60;1.00
17984;DHT22;9117;52.420;20.728;2022-12-19T14:26:44;-5.70;40.00
17984;DHT22;9117;52.420;20.728;2022-12-19T14:29:35;-6.20;1.00
17984;DHT22;9117;52.420;20.728;2022-12-19T14:32:26;-5.70;99.90
17984;DHT22;9117;52.420;20.728;2022-12-19T14:35:16;-5.70;1.00
17984;DHT22;9117;52.420;20.728;2022-12-19T14:38:06;-5.70;99.90
17984;DHT22;9117;52.420;20.728;2022-12-19T14:46:27;-5.80;1.00
17984;DHT22;9117;52.420;20.728;2022-12-19T14:49:26;-5.80;99.90
17984;DHT22;9117;52.420;20.728;2022-12-19T14:52:40;-5.80;1.00
17984;DHT22;9117;52.420;20.728;2022-12-19T14:55:31;-5.80;1.00
17984;DHT22;9117;52.420;20.728;2022-12-19T14:58:27;-5.80;1.00
17984;DHT22;9117;52.420;20.728;2022-12-19T15:01:21;-5.80;1.00
17984;DHT22;9117;52.420;20.728;2022-12-19T15:03:53;-5.80;1.00
17984;DHT22;9117;52.420;20.728;2022-12-19T15:06:44;-5.80;99.90
17984;DHT22;9117;52.420;20.728;2022-12-19T15:09:37;-5.80;99.90
17984;DHT22;9117;52.420;20.728;2022-12-19T15:12:31;-5.80;99.90
17984;DHT22;9117;52.420;20.728;2022-12-19T15:15:39;-5.80;1.00
17984;DHT22;9117;52.420;20.728;2022-12-19T15:18:23;-5.80;99.90
17984;DHT22;9117;52.420;20.728;2022-12-19T15:20:53;-5.90;1.00
17984;DHT22;9117;52.420;20.728;2022-12-19T15:23:24;-5.80;1.00
17984;DHT22;9117;52.420;20.728;2022-12-19T15:25:53;-5.70;99.90
17984;DHT22;9117;52.420;20.728;2022-12-19T15:28:39;-5.70;1.00
17984;DHT22;9117;52.420;20.728;2022-12-19T15:31:19;-5.70;99.90
17984;DHT22;9117;52.420;20.728;2022-12-19T15:39:08;-5.70;99.90
17984;DHT22;9117;52.420;20.728;2022-12-19T15:44:08;-5.60;99.90
17984;DHT22;9117;52.420;20.728;2022-12-19T15:54:13;-5.60;99.90
17984;DHT22;9117;52.420;20.728;2022-12-19T15:59:32;-5.60;1.00
17984;DHT22;9117;52.420;20.728;2022-12-19T16:02:13;-5.60;99.90
17984;DHT22;9117;52.420;20.728;2022-12-19T16:04:44;-5.60;99.90
17984;DHT22;9117;52.420;20.728;2022-12-19T16:07:17;-6.10;99.90
17984;DHT22;9117;52.420;20.728;2022-12-19T16:09:47;-5.60;99.90
17984;DHT22;9117;52.420;20.728;2022-12-19T16:12:18;-5.60;99.90
17984;DHT22;9117;52.420;20.728;2022-12-19T16:14:55;-5.60;99.90
17984;DHT22;9117;52.420;20.728;2022-12-19T16:17:24;-5.60;1.00
17984;DHT22;9117;52.420;20.728;2022-12-19T16:22:23;-5.60;1.00
17984;DHT22;9117;52.420;20.728;2022-12-19T16:24:54;-5.60;1.00
17984;DHT22;9117;52.420;20.728;2022-12-19T16:27:24;-5.60;99.90
17984;DHT22;9117;52.420;20.728;2022-12-19T16:29:53;-5.60;99.90
17984;DHT22;9117;52.420;20.728;2022-12-19T16:39:55;-5.60;99.90
17984;DHT22;9117;52.420;20.728;2022-12-19T16:57:18;-5.50;99.90
17984;DHT22;9117;52.420;20.728;2022-12-19T16:59:46;-5.60;1.00
17984;DHT22;9117;52.420;20.728;2022-12-19T17:02:40;-5.50;1.00
17984;DHT22;9117;52.420;20.728;2022-12-19T17:05:20;-5.50;1.00
17984;DHT22;9117;52.420;20.728;2022-12-19T17:07:50;-5.40;99.90
17984;DHT22;9117;52.420;20.728;2022-12-19T17:10:21;-5.50;1.00
17984;DHT22;9117;52.420;20.728;2022-12-19T17:12:54;-5.40;1.00
17984;DHT22;9117;52.420;20.728;2022-12-19T17:15:25;-5.40;1.00
17984;DHT22;9117;52.420;20.728;2022-12-19T17:17:56;-5.30;1.00
17984;DHT22;9117;52.420;20.728;2022-12-19T17:20:27;-5.30;99.90
17984;DHT22;9117;52.420;20.728;2022-12-19T17:25:26;-5.30;99.90
17984;DHT22;9117;52.420;20.728;2022-12-19T17:27:56;-5.30;1.00
17984;DHT22;9117;52.420;20.728;2022-12-19T17:32:53;-5.30;1.00
17984;DHT22;9117;52.420;20.728;2022-12-19T17:35:24;-5.30;1.00
17984;DHT22;9117;52.420;20.728;2022-12-19T17:37:55;-5.20;1.00
17984;DHT22;9117;52.420;20.728;2022-12-19T17:40:26;-5.20;1.00
17984;DHT22;9117;52.420;20.728;2022-12-19T17:42:57;-5.20;99.90
17984;DHT22;9117;52.420;20.728;2022-12-19T17:45:27;-5.20;1.00
17984;DHT22;9117;52.420;20.728;2022-12-19T17:47:58;-5.10;41.50
17984;DHT22;9117;52.420;20.728;2022-12-19T17:50:31;-5.10;79.50
17984;DHT22;9117;52.420;20.728;2022-12-19T17:58:00;-5.10;99.90
17984;DHT22;9117;52.420;20.728;2022-12-19T18:00:31;-5.00;1.00
17984;DHT22;9117;52.420;20.728;2022-12-19T18:03:01;-5.00;1.00
17984;DHT22;9117;52.420;20.728;2022-12-19T18:05:33;-5.00;22.30
17984;DHT22;9117;52.420;20.728;2022-12-19T18:08:02;-5.00;1.00
17984;DHT22;9117;52.420;20.728;2022-12-19T18:10:31;-5.10;1.00
17984;DHT22;9117;52.420;20.728;2022-12-19T18:13:00;-5.00;67.50
17984;DHT22;9117;52.420;20.728;2022-12-19T18:20:29;-4.90;99.90
17984;DHT22;9117;52.420;20.728;2022-12-19T18:22:59;-4.90;1.00
17984;DHT22;9117;52.420;20.728;2022-12-19T18:25:29;-4.90;1.00
17984;DHT22;9117;52.420;20.728;2022-12-19T18:30:27;-4.80;1.00
17984;DHT22;9117;52.420;20.728;2022-12-19T18:32:58;-4.80;99.90
17984;DHT22;9117;52.420;20.728;2022-12-19T18:35:30;-4.80;1.00
17984;DHT22;9117;52.420;20.728;2022-12-19T18:37:59;-4.80;99.90
17984;DHT22;9117;52.420;20.728;2022-12-19T18:45:32;-4.70;1.00
17984;DHT22;9117;52.420;20.728;2022-12-19T18:48:04;-4.70;38.70
17984;DHT22;9117;52.420;20.728;2022-12-19T19:00:28;-4.50;99.90
17984;DHT22;9117;52.420;20.728;2022-12-19T19:02:58;-4.50;1.00
17984;DHT22;9117;52.420;20.728;2022-12-19T19:05:29;-4.50;99.90
17984;DHT22;9117;52.420;20.728;2022-12-19T19:08:04;-4.40;1.00
17984;DHT22;9117;52.420;20.728;2022-12-19T19:13:01;-4.60;99.90
17984;DHT22;9117;52.420;20.728;2022-12-19T19:15:41;-4.30;1.00
17984;DHT22;9117;52.420;20.728;2022-12-19T19:20:43;-4.30;1.00
17984;DHT22;9117;52.420;20.728;2022-12-19T19:23:12;-4.20;1.00
17984;DHT22;9117;52.420;20.728;2022-12-19T19:30:39;-4.30;99.90
17984;DHT22;9117;52.420;20.728;2022-12-19T19:33:11;-4.30;26.20
17984;DHT22;9117;52.420;20.728;2022-12-19T19:35:42;-4.20;99.90
17984;DHT22;9117;52.420;20.728;2022-12-19T19:38:11;-4.20;1.00
17984;DHT22;9117;52.420;20.728;2022-12-19T19:48:10;-4.10;99.90
17984;DHT22;9117;52.420;20.728;2022-12-19T19:58:04;-3.90;1.00
17984;DHT22;9117;52.420;20.728;2022-12-19T20:05:36;-3.90;1.00
17984;DHT22;9117;52.420;20.728;2022-12-19T20:22:56;-3.70;99.90
17984;DHT22;9117;52.420;20.728;2022-12-19T20:40:15;-3.60;99.90
17984;DHT22;9117;52.420;20.728;2022-12-19T20:55:08;-3.20;99.90
17984;DHT22;9117;52.420;20.728;2022-12-19T20:57:37;-3.40;1.00
17984;DHT22;9117;52.420;20.728;2022-12-19T21:00:07;-3.40;99.90
17984;DHT22;9117;52.420;20.728;2022-12-19T21:12:51;-3.20;1.00
17984;DHT22;9117;52.420;20.728;2022-12-19T21:27:41;-3.10;1.00
17984;DHT22;9117;52.420;20.728;2022-12-19T21:30:11;-3.20;1.00
17984;DHT22;9117;52.420;20.728;2022-12-19T21:35:08;-3.10;1.00
17984;DHT22;9117;52.420;20.728;2022-12-19T21:40:10;-2.80;99.90
17984;DHT22;9117;52.420;20.728;2022-12-19T21:42:38;-2.40;99.90
17984;DHT22;9117;52.420;20.728;2022-12-19T21:45:07;-3.20;1.00
17984;DHT22;9117;52.420;20.728;2022-12-19T21:47:36;-3.10;1.00
17984;DHT22;9117;52.420;20.728;2022-12-19T21:50:07;-2.70;1.00
17984;DHT22;9117;52.420;20.728;2022-12-19T21:52:35;-2.90;1.00
17984;DHT22;9117;52.420;20.728;2022-12-19T21:55:04;-2.70;1.00
17984;DHT22;9117;52.420;20.728;2022-12-19T21:57:37;-2.80;43.30
17984;DHT22;9117;52.420;20.728;2022-12-19T22:00:07;-2.30;1.00
17984;DHT22;9117;52.420;20.728;2022-12-19T22:02:37;-3.20;99.90
17984;DHT22;9117;52.420;20.728;2022-12-19T22:07:49;-2.50;99.90
17984;DHT22;9117;52.420;20.728;2022-12-19T22:10:17;-3.00;1.00
17984;DHT22;9117;52.420;20.728;2022-12-19T22:15:14;-2.40;1.00
17984;DHT22;9117;52.420;20.728;2022-12-19T22:17:43;-2.50;1.00
17984;DHT22;9117;52.420;20.728;2022-12-19T22:20:11;-2.40;1.00
17984;DHT22;9117;52.420;20.728;2022-12-19T22:25:08;-3.10;1.00
17984;DHT22;9117;52.420;20.728;2022-12-19T22:27:36;-2.30;99.90
17984;DHT22;9117;52.420;20.728;2022-12-19T22:30:07;-2.30;1.00
17984;DHT22;9117;52.420;20.728;2022-12-19T22:32:37;-2.40;97.20
17984;DHT22;9117;52.420;20.728;2022-12-19T22:35:07;-2.20;99.90
17984;DHT22;9117;52.420;20.728;2022-12-19T22:37:35;-2.20;1.00
17984;DHT22;9117;52.420;20.728;2022-12-19T22:40:10;-2.50;99.90
17984;DHT22;9117;52.420;20.728;2022-12-19T22:42:38;-2.40;1.00
17984;DHT22;9117;52.420;20.728;2022-12-19T22:45:07;-2.20;98.50
17984;DHT22;9117;52.420;20.728;2022-12-19T22:47:40;-1.30;1.00
17984;DHT22;9117;52.420;20.728;2022-12-19T22:50:10;-2.10;1.00
17984;DHT22;9117;52.420;20.728;2022-12-19T22:52:39;-1.20;99.90
17984;DHT22;9117;52.420;20.728;2022-12-19T22:55:07;-2.00;33.10
17984;DHT22;9117;52.420;20.728;2022-12-19T22:57:35;-1.90;1.00
17984;DHT22;9117;52.420;20.728;2022-12-19T23:00:05;-1.80;99.90
17984;DHT22;9117;52.420;20.728;2022-12-19T23:02:37;-1.90;99.90
17984;DHT22;9117;52.420;20.728;2022-12-19T23:05:06;-1.90;7.60
17984;DHT22;9117;52.420;20.728;2022-12-19T23:07:35;-1.60;94.30
17984;DHT22;9117;52.420;20.728;2022-12-19T23:10:04;-1.80;1.00
17984;DHT22;9117;52.420;20.728;2022-12-19T23:12:32;-1.80;99.90
17984;DHT22;9117;52.420;20.728;2022-12-19T23:15:00;-1.50;99.90
17984;DHT22;9117;52.420;20.728;2022-12-19T23:17:28;-1.70;1.00
17984;DHT22;9117;52.420;20.728;2022-12-19T23:19:57;-1.50;1.00
17984;DHT22;9117;52.420;20.728;2022-12-19T23:22:25;-0.60;1.00
17984;DHT22;9117;52.420;20.728;2022-12-19T23:24:54;-1.60;1.00
17984;DHT22;9117;52.420;20.728;2022-12-19T23:27:22;-1.50;85.10
17984;DHT22;9117;52.420;20.728;2022-12-19T23:29:50;-2.10;1.00
17984;DHT22;9117;52.420;20.728;2022-12-19T23:32:18;-1.50;1.00
17984;DHT22;9117;52.420;20.728;2022-12-19T23:34:47;-1.40;99.90
17984;DHT22;9117;52.420;20.728;2022-12-19T23:37:15;-1.50;99.90
17984;DHT22;9117;52.420;20.728;2022-12-19T23:39:43;-1.60;74.70
17984;DHT22;9117;52.420;20.728;2022-12-19T23:42:12;-1.20;99.90
17984;DHT22;9117;52.420;20.728;2022-12-19T23:44:40;-1.30;99.90
17984;DHT22;9117;52.420;20.728;2022-12-19T23:49:37;-1.20;43.20
17984;DHT22;9117;52.420;20.728;2022-12-19T23:52:05;-1.30;1.00
17984;DHT22;9117;52.420;20.728;2022-12-19T23:54:33;-1.10;99.90
17984;DHT22;9117;52.420;20.728;2022-12-19T23:57:01;-0.70;99.90
17984;DHT22;9117;52.420;20.728;2022-12-19T23:59:30;-1.40;99.90
